sensor_id;sensor_type;location;lat;lon;timestamp;P1;durP1;ratioP1;P2;durP2;ratioP2
73699;SDS011;62005;50.082;8.988;2023-12-20T00:02:22;3.22;;;1.60;;
73699;SDS011;62005;50.082;8.988;2023-12-20T00:04:48;3.25;;;1.30;;
73699;SDS011;62005;50.082;8.988;2023-12-20T00:07:13;3.22;;;1.23;;
73699;SDS011;62005;50.082;8.988;2023-12-20T00:09:39;2.78;;;0.90;;
73699;SDS011;62005;50.082;8.988;2023-12-20T00:12:04;2.58;;;1.30;;
73699;SDS011;62005;50.082;8.988;2023-12-20T00:14:30;3.00;;;1.02;;
73699;SDS011;62005;50.082;8.988;2023-12-20T00:16:55;2.97;;;1.73;;
73699;SDS011;62005;50.082;8.988;2023-12-20T00:19:21;2.70;;;2.03;;
73699;SDS011;62005;50.082;8.988;2023-12-20T00:21:46;2.10;;;1.00;;
73699;SDS011;62005;50.082;8.988;2023-12-20T00:24:11;3.20;;;1.10;;
73699;SDS011;62005;50.082;8.988;2023-12-20T00:26:37;2.38;;;1.10;;
73699;SDS011;62005;50.082;8.988;2023-12-20T00:29:02;2.73;;;1.53;;
73699;SDS011;62005;50.082;8.988;2023-12-20T00:31:28;4.72;;;1.58;;
73699;SDS011;62005;50.082;8.988;2023-12-20T00:33:53;3.50;;;2.57;;
73699;SDS011;62005;50.082;8.988;2023-12-20T00:36:19;2.97;;;1.50;;
73699;SDS011;62005;50.082;8.988;2023-12-20T00:38:45;2.38;;;1.00;;
73699;SDS011;62005;50.082;8.988;2023-12-20T00:41:10;2.57;;;0.80;;
73699;SDS011;62005;50.082;8.988;2023-12-20T00:43:35;2.57;;;0.83;;
73699;SDS011;62005;50.082;8.988;2023-12-20T00:46:01;3.60;;;0.90;;
73699;SDS011;62005;50.082;8.988;2023-12-20T00:48:26;2.70;;;1.15;;
73699;SDS011;62005;50.082;8.988;2023-12-20T00:50:52;4.55;;;1.45;;
73699;SDS011;62005;50.082;8.988;2023-12-20T00:53:18;1.98;;;0.80;;
73699;SDS011;62005;50.082;8.988;2023-12-20T00:55:44;3.38;;;1.15;;
73699;SDS011;62005;50.082;8.988;2023-12-20T00:58:10;3.80;;;1.02;;
73699;SDS011;62005;50.082;8.988;2023-12-20T01:00:35;3.53;;;0.90;;
73699;SDS011;62005;50.082;8.988;2023-12-20T01:03:01;1.95;;;0.82;;
73699;SDS011;62005;50.082;8.988;2023-12-20T01:05:26;2.33;;;1.08;;
73699;SDS011;62005;50.082;8.988;2023-12-20T01:07:52;5.07;;;1.17;;
73699;SDS011;62005;50.082;8.988;2023-12-20T01:10:17;2.10;;;0.90;;
73699;SDS011;62005;50.082;8.988;2023-12-20T01:12:43;2.58;;;1.10;;
73699;SDS011;62005;50.082;8.988;2023-12-20T01:15:09;2.80;;;1.00;;
73699;SDS011;62005;50.082;8.988;2023-12-20T01:17:34;2.30;;;1.15;;
73699;SDS011;62005;50.082;8.988;2023-12-20T01:20:00;3.10;;;0.80;;
73699;SDS011;62005;50.082;8.988;2023-12-20T01:22:25;1.83;;;0.95;;
73699;SDS011;62005;50.082;8.988;2023-12-20T01:24:51;1.43;;;0.70;;
73699;SDS011;62005;50.082;8.988;2023-12-20T01:27:16;1.90;;;0.93;;
73699;SDS011;62005;50.082;8.988;2023-12-20T01:29:41;2.10;;;1.90;;
73699;SDS011;62005;50.082;8.988;2023-12-20T01:32:07;2.85;;;1.30;;
73699;SDS011;62005;50.082;8.988;2023-12-20T01:34:32;1.73;;;0.87;;
73699;SDS011;62005;50.082;8.988;2023-12-20T01:36:58;1.48;;;0.75;;
73699;SDS011;62005;50.082;8.988;2023-12-20T01:39:23;2.43;;;1.10;;
73699;SDS011;62005;50.082;8.988;2023-12-20T01:41:48;2.13;;;0.80;;
73699;SDS011;62005;50.082;8.988;2023-12-20T01:44:14;1.73;;;0.68;;
73699;SDS011;62005;50.082;8.988;2023-12-20T01:46:39;3.05;;;2.78;;
73699;SDS011;62005;50.082;8.988;2023-12-20T01:49:06;2.67;;;0.90;;
73699;SDS011;62005;50.082;8.988;2023-12-20T01:51:32;2.38;;;1.00;;
73699;SDS011;62005;50.082;8.988;2023-12-20T01:53:58;1.33;;;0.60;;
73699;SDS011;62005;50.082;8.988;2023-12-20T01:56:25;2.67;;;2.05;;
73699;SDS011;62005;50.082;8.988;2023-12-20T01:58:53;1.20;;;0.32;;
73699;SDS011;62005;50.082;8.988;2023-12-20T02:01:20;3.25;;;0.98;;
73699;SDS011;62005;50.082;8.988;2023-12-20T02:03:46;2.22;;;0.77;;
73699;SDS011;62005;50.082;8.988;2023-12-20T02:06:12;2.13;;;0.70;;
73699;SDS011;62005;50.082;8.988;2023-12-20T02:08:37;1.30;;;0.60;;
73699;SDS011;62005;50.082;8.988;2023-12-20T02:11:03;1.52;;;0.70;;
73699;SDS011;62005;50.082;8.988;2023-12-20T02:13:29;2.03;;;0.90;;
73699;SDS011;62005;50.082;8.988;2023-12-20T02:15:55;2.00;;;1.60;;
73699;SDS011;62005;50.082;8.988;2023-12-20T02:18:21;2.60;;;0.60;;
73699;SDS011;62005;50.082;8.988;2023-12-20T02:20:47;2.13;;;0.88;;
73699;SDS011;62005;50.082;8.988;2023-12-20T02:23:12;1.80;;;1.00;;
73699;SDS011;62005;50.082;8.988;2023-12-20T02:25:38;1.77;;;1.27;;
73699;SDS011;62005;50.082;8.988;2023-12-20T02:28:03;1.52;;;0.60;;
73699;SDS011;62005;50.082;8.988;2023-12-20T02:30:30;1.50;;;0.63;;
73699;SDS011;62005;50.082;8.988;2023-12-20T02:32:55;1.50;;;0.70;;
73699;SDS011;62005;50.082;8.988;2023-12-20T02:35:21;2.25;;;0.80;;
73699;SDS011;62005;50.082;8.988;2023-12-20T02:37:46;1.30;;;0.40;;
73699;SDS011;62005;50.082;8.988;2023-12-20T02:40:12;1.63;;;0.70;;
73699;SDS011;62005;50.082;8.988;2023-12-20T02:42:37;1.27;;;0.55;;
73699;SDS011;62005;50.082;8.988;2023-12-20T02:45:03;2.17;;;1.77;;
73699;SDS011;62005;50.082;8.988;2023-12-20T02:47:28;2.17;;;1.70;;
73699;SDS011;62005;50.082;8.988;2023-12-20T02:49:55;1.02;;;0.30;;
73699;SDS011;62005;50.082;8.988;2023-12-20T02:52:21;1.63;;;0.55;;
73699;SDS011;62005;50.082;8.988;2023-12-20T02:54:47;1.23;;;0.52;;
73699;SDS011;62005;50.082;8.988;2023-12-20T02:57:13;2.17;;;0.70;;
73699;SDS011;62005;50.082;8.988;2023-12-20T02:59:38;1.47;;;0.60;;
73699;SDS011;62005;50.082;8.988;2023-12-20T03:02:03;1.23;;;0.57;;
73699;SDS011;62005;50.082;8.988;2023-12-20T03:04:29;1.50;;;0.63;;
73699;SDS011;62005;50.082;8.988;2023-12-20T03:06:54;1.60;;;0.57;;
73699;SDS011;62005;50.082;8.988;2023-12-20T03:09:20;1.50;;;0.50;;
73699;SDS011;62005;50.082;8.988;2023-12-20T03:11:45;1.50;;;0.80;;
73699;SDS011;62005;50.082;8.988;2023-12-20T03:14:11;1.87;;;0.70;;
73699;SDS011;62005;50.082;8.988;2023-12-20T03:16:36;1.47;;;0.60;;
73699;SDS011;62005;50.082;8.988;2023-12-20T03:19:01;1.67;;;1.20;;
73699;SDS011;62005;50.082;8.988;2023-12-20T03:21:27;1.02;;;0.40;;
73699;SDS011;62005;50.082;8.988;2023-12-20T03:23:53;2.30;;;0.77;;
73699;SDS011;62005;50.082;8.988;2023-12-20T03:26:18;2.60;;;0.67;;
73699;SDS011;62005;50.082;8.988;2023-12-20T03:28:44;2.17;;;0.77;;
73699;SDS011;62005;50.082;8.988;2023-12-20T03:31:09;1.95;;;1.73;;
73699;SDS011;62005;50.082;8.988;2023-12-20T03:33:36;1.05;;;0.35;;
73699;SDS011;62005;50.082;8.988;2023-12-20T03:36:01;1.40;;;0.75;;
73699;SDS011;62005;50.082;8.988;2023-12-20T03:38:26;1.20;;;0.52;;
73699;SDS011;62005;50.082;8.988;2023-12-20T03:40:52;1.83;;;0.57;;
73699;SDS011;62005;50.082;8.988;2023-12-20T03:43:17;1.85;;;0.63;;
73699;SDS011;62005;50.082;8.988;2023-12-20T03:45:43;1.27;;;0.65;;
73699;SDS011;62005;50.082;8.988;2023-12-20T03:48:08;1.48;;;0.35;;
73699;SDS011;62005;50.082;8.988;2023-12-20T03:50:34;1.83;;;0.63;;
73699;SDS011;62005;50.082;8.988;2023-12-20T03:53:00;1.80;;;1.08;;
73699;SDS011;62005;50.082;8.988;2023-12-20T03:55:25;2.10;;;0.68;;
73699;SDS011;62005;50.082;8.988;2023-12-20T03:57:51;1.37;;;0.63;;
73699;SDS011;62005;50.082;8.988;2023-12-20T04:00:16;2.47;;;1.40;;
73699;SDS011;62005;50.082;8.988;2023-12-20T04:02:42;1.77;;;0.40;;
73699;SDS011;62005;50.082;8.988;2023-12-20T04:05:08;1.10;;;0.55;;
73699;SDS011;62005;50.082;8.988;2023-12-20T04:07:34;1.33;;;0.65;;
73699;SDS011;62005;50.082;8.988;2023-12-20T04:10:01;1.67;;;0.57;;
73699;SDS011;62005;50.082;8.988;2023-12-20T04:12:30;5.13;;;0.70;;
73699;SDS011;62005;50.082;8.988;2023-12-20T04:14:55;1.75;;;0.43;;
73699;SDS011;62005;50.082;8.988;2023-12-20T04:17:23;2.75;;;0.70;;
73699;SDS011;62005;50.082;8.988;2023-12-20T04:19:49;1.92;;;0.73;;
73699;SDS011;62005;50.082;8.988;2023-12-20T04:22:15;2.15;;;0.88;;
73699;SDS011;62005;50.082;8.988;2023-12-20T04:24:40;1.83;;;1.00;;
73699;SDS011;62005;50.082;8.988;2023-12-20T04:27:07;1.45;;;0.50;;
73699;SDS011;62005;50.082;8.988;2023-12-20T04:29:33;6.22;;;0.82;;
73699;SDS011;62005;50.082;8.988;2023-12-20T04:31:58;1.48;;;0.60;;
73699;SDS011;62005;50.082;8.988;2023-12-20T04:34:24;3.53;;;0.50;;
73699;SDS011;62005;50.082;8.988;2023-12-20T04:36:49;1.57;;;0.50;;
73699;SDS011;62005;50.082;8.988;2023-12-20T04:39:14;2.47;;;1.23;;
73699;SDS011;62005;50.082;8.988;2023-12-20T04:41:40;1.73;;;0.83;;
73699;SDS011;62005;50.082;8.988;2023-12-20T04:44:05;2.20;;;0.65;;
73699;SDS011;62005;50.082;8.988;2023-12-20T04:46:31;1.05;;;0.55;;
73699;SDS011;62005;50.082;8.988;2023-12-20T04:48:56;0.95;;;0.40;;
73699;SDS011;62005;50.082;8.988;2023-12-20T04:51:22;1.52;;;0.70;;
73699;SDS011;62005;50.082;8.988;2023-12-20T04:53:47;1.40;;;0.60;;
73699;SDS011;62005;50.082;8.988;2023-12-20T04:56:13;1.30;;;0.63;;
73699;SDS011;62005;50.082;8.988;2023-12-20T04:58:38;2.00;;;0.90;;
73699;SDS011;62005;50.082;8.988;2023-12-20T05:01:05;1.63;;;0.60;;
73699;SDS011;62005;50.082;8.988;2023-12-20T05:05:56;1.50;;;0.50;;
73699;SDS011;62005;50.082;8.988;2023-12-20T05:08:22;1.73;;;1.20;;
73699;SDS011;62005;50.082;8.988;2023-12-20T05:10:47;2.10;;;0.65;;
73699;SDS011;62005;50.082;8.988;2023-12-20T05:13:13;1.83;;;0.60;;
73699;SDS011;62005;50.082;8.988;2023-12-20T05:15:38;2.63;;;1.65;;
73699;SDS011;62005;50.082;8.988;2023-12-20T05:18:04;1.10;;;0.73;;
73699;SDS011;62005;50.082;8.988;2023-12-20T05:20:29;2.72;;;0.73;;
73699;SDS011;62005;50.082;8.988;2023-12-20T05:22:55;1.88;;;0.80;;
73699;SDS011;62005;50.082;8.988;2023-12-20T05:25:20;1.03;;;0.60;;
73699;SDS011;62005;50.082;8.988;2023-12-20T05:27:45;2.20;;;0.80;;
73699;SDS011;62005;50.082;8.988;2023-12-20T05:30:11;2.13;;;0.80;;
73699;SDS011;62005;50.082;8.988;2023-12-20T05:32:36;1.58;;;0.65;;
73699;SDS011;62005;50.082;8.988;2023-12-20T05:35:02;1.67;;;0.60;;
73699;SDS011;62005;50.082;8.988;2023-12-20T05:37:28;1.98;;;0.65;;
73699;SDS011;62005;50.082;8.988;2023-12-20T05:39:53;1.50;;;0.50;;
73699;SDS011;62005;50.082;8.988;2023-12-20T05:42:19;1.38;;;0.68;;
73699;SDS011;62005;50.082;8.988;2023-12-20T05:44:44;1.85;;;0.90;;
73699;SDS011;62005;50.082;8.988;2023-12-20T05:47:10;1.88;;;1.00;;
73699;SDS011;62005;50.082;8.988;2023-12-20T05:49:35;2.55;;;0.80;;
73699;SDS011;62005;50.082;8.988;2023-12-20T05:52:01;2.50;;;0.80;;
73699;SDS011;62005;50.082;8.988;2023-12-20T05:54:26;3.07;;;1.20;;
73699;SDS011;62005;50.082;8.988;2023-12-20T05:56:51;2.57;;;1.00;;
73699;SDS011;62005;50.082;8.988;2023-12-20T05:59:17;1.90;;;0.73;;
73699;SDS011;62005;50.082;8.988;2023-12-20T06:01:42;3.10;;;1.08;;
73699;SDS011;62005;50.082;8.988;2023-12-20T06:04:08;2.37;;;1.23;;
73699;SDS011;62005;50.082;8.988;2023-12-20T06:06:33;2.45;;;1.10;;
73699;SDS011;62005;50.082;8.988;2023-12-20T06:08:58;1.77;;;0.73;;
73699;SDS011;62005;50.082;8.988;2023-12-20T06:11:24;2.53;;;0.95;;
73699;SDS011;62005;50.082;8.988;2023-12-20T06:13:51;2.42;;;0.82;;
73699;SDS011;62005;50.082;8.988;2023-12-20T06:16:18;2.00;;;0.80;;
73699;SDS011;62005;50.082;8.988;2023-12-20T06:18:44;2.03;;;1.05;;
73699;SDS011;62005;50.082;8.988;2023-12-20T06:21:09;1.73;;;0.77;;
73699;SDS011;62005;50.082;8.988;2023-12-20T06:23:37;3.63;;;1.13;;
73699;SDS011;62005;50.082;8.988;2023-12-20T06:26:03;1.88;;;0.60;;
73699;SDS011;62005;50.082;8.988;2023-12-20T06:28:29;1.88;;;0.88;;
73699;SDS011;62005;50.082;8.988;2023-12-20T06:30:54;3.92;;;1.42;;
73699;SDS011;62005;50.082;8.988;2023-12-20T06:33:20;3.53;;;0.95;;
73699;SDS011;62005;50.082;8.988;2023-12-20T06:35:47;3.42;;;1.10;;
73699;SDS011;62005;50.082;8.988;2023-12-20T06:38:12;1.65;;;0.40;;
73699;SDS011;62005;50.082;8.988;2023-12-20T06:40:38;3.73;;;0.47;;
73699;SDS011;62005;50.082;8.988;2023-12-20T06:43:03;1.30;;;0.43;;
73699;SDS011;62005;50.082;8.988;2023-12-20T06:45:28;3.47;;;0.52;;
73699;SDS011;62005;50.082;8.988;2023-12-20T06:47:54;3.20;;;1.38;;
73699;SDS011;62005;50.082;8.988;2023-12-20T06:50:20;1.17;;;0.38;;
73699;SDS011;62005;50.082;8.988;2023-12-20T06:52:45;0.98;;;0.40;;
73699;SDS011;62005;50.082;8.988;2023-12-20T06:55:11;3.08;;;0.50;;
73699;SDS011;62005;50.082;8.988;2023-12-20T06:57:36;1.30;;;0.50;;
73699;SDS011;62005;50.082;8.988;2023-12-20T07:00:02;1.67;;;0.30;;
73699;SDS011;62005;50.082;8.988;2023-12-20T07:02:28;2.10;;;1.00;;
73699;SDS011;62005;50.082;8.988;2023-12-20T07:04:55;1.60;;;0.40;;
73699;SDS011;62005;50.082;8.988;2023-12-20T07:07:21;1.45;;;0.45;;
73699;SDS011;62005;50.082;8.988;2023-12-20T07:09:48;2.53;;;0.45;;
73699;SDS011;62005;50.082;8.988;2023-12-20T07:12:13;2.15;;;0.40;;
73699;SDS011;62005;50.082;8.988;2023-12-20T07:14:39;4.05;;;0.75;;
73699;SDS011;62005;50.082;8.988;2023-12-20T07:17:04;4.25;;;0.77;;
73699;SDS011;62005;50.082;8.988;2023-12-20T07:19:30;2.35;;;0.63;;
73699;SDS011;62005;50.082;8.988;2023-12-20T07:21:55;3.00;;;0.60;;
73699;SDS011;62005;50.082;8.988;2023-12-20T07:24:20;3.75;;;0.50;;
73699;SDS011;62005;50.082;8.988;2023-12-20T07:26:46;3.65;;;0.70;;
73699;SDS011;62005;50.082;8.988;2023-12-20T07:29:11;3.55;;;1.30;;
73699;SDS011;62005;50.082;8.988;2023-12-20T07:31:37;6.47;;;1.52;;
73699;SDS011;62005;50.082;8.988;2023-12-20T07:34:03;4.85;;;1.40;;
73699;SDS011;62005;50.082;8.988;2023-12-20T07:36:28;5.40;;;1.42;;
73699;SDS011;62005;50.082;8.988;2023-12-20T07:38:54;8.38;;;4.45;;
73699;SDS011;62005;50.082;8.988;2023-12-20T07:41:19;7.35;;;3.22;;
73699;SDS011;62005;50.082;8.988;2023-12-20T07:43:46;6.45;;;3.60;;
73699;SDS011;62005;50.082;8.988;2023-12-20T07:46:12;9.55;;;3.20;;
73699;SDS011;62005;50.082;8.988;2023-12-20T07:48:37;9.38;;;5.93;;
73699;SDS011;62005;50.082;8.988;2023-12-20T07:51:04;8.00;;;4.63;;
73699;SDS011;62005;50.082;8.988;2023-12-20T07:53:32;7.30;;;2.45;;
73699;SDS011;62005;50.082;8.988;2023-12-20T07:55:58;5.07;;;1.75;;
73699;SDS011;62005;50.082;8.988;2023-12-20T07:58:23;6.57;;;3.47;;
73699;SDS011;62005;50.082;8.988;2023-12-20T08:00:48;6.97;;;3.53;;
73699;SDS011;62005;50.082;8.988;2023-12-20T08:03:14;5.35;;;2.75;;
73699;SDS011;62005;50.082;8.988;2023-12-20T08:05:39;4.10;;;2.07;;
73699;SDS011;62005;50.082;8.988;2023-12-20T08:08:05;4.82;;;2.55;;
73699;SDS011;62005;50.082;8.988;2023-12-20T08:10:31;5.85;;;1.65;;
73699;SDS011;62005;50.082;8.988;2023-12-20T08:12:56;2.85;;;1.15;;
73699;SDS011;62005;50.082;8.988;2023-12-20T08:15:22;7.70;;;2.25;;
73699;SDS011;62005;50.082;8.988;2023-12-20T08:17:48;7.68;;;2.10;;
73699;SDS011;62005;50.082;8.988;2023-12-20T08:20:15;7.93;;;3.17;;
73699;SDS011;62005;50.082;8.988;2023-12-20T08:22:41;8.15;;;3.88;;
73699;SDS011;62005;50.082;8.988;2023-12-20T08:25:07;2.85;;;0.77;;
73699;SDS011;62005;50.082;8.988;2023-12-20T08:27:33;2.97;;;0.60;;
73699;SDS011;62005;50.082;8.988;2023-12-20T08:29:59;5.43;;;0.80;;
73699;SDS011;62005;50.082;8.988;2023-12-20T08:32:27;4.30;;;1.17;;
73699;SDS011;62005;50.082;8.988;2023-12-20T08:34:52;1.95;;;0.63;;
73699;SDS011;62005;50.082;8.988;2023-12-20T08:37:18;2.90;;;0.70;;
73699;SDS011;62005;50.082;8.988;2023-12-20T08:39:43;2.42;;;0.70;;
73699;SDS011;62005;50.082;8.988;2023-12-20T08:42:09;3.13;;;0.60;;
73699;SDS011;62005;50.082;8.988;2023-12-20T08:44:35;1.95;;;0.30;;
73699;SDS011;62005;50.082;8.988;2023-12-20T08:47:00;2.50;;;0.38;;
73699;SDS011;62005;50.082;8.988;2023-12-20T08:49:25;4.55;;;0.45;;
73699;SDS011;62005;50.082;8.988;2023-12-20T08:51:51;3.40;;;0.80;;
73699;SDS011;62005;50.082;8.988;2023-12-20T08:54:16;2.97;;;0.73;;
73699;SDS011;62005;50.082;8.988;2023-12-20T08:56:42;3.75;;;1.77;;
73699;SDS011;62005;50.082;8.988;2023-12-20T08:59:08;2.30;;;0.55;;
73699;SDS011;62005;50.082;8.988;2023-12-20T09:01:34;5.72;;;1.55;;
73699;SDS011;62005;50.082;8.988;2023-12-20T09:04:00;2.55;;;1.38;;
73699;SDS011;62005;50.082;8.988;2023-12-20T09:06:25;5.88;;;1.30;;
73699;SDS011;62005;50.082;8.988;2023-12-20T09:08:51;4.97;;;1.05;;
73699;SDS011;62005;50.082;8.988;2023-12-20T09:11:16;3.25;;;0.60;;
73699;SDS011;62005;50.082;8.988;2023-12-20T09:13:42;4.15;;;1.30;;
73699;SDS011;62005;50.082;8.988;2023-12-20T09:16:09;6.80;;;0.60;;
73699;SDS011;62005;50.082;8.988;2023-12-20T09:18:35;2.55;;;0.60;;
73699;SDS011;62005;50.082;8.988;2023-12-20T09:21:00;5.47;;;0.57;;
73699;SDS011;62005;50.082;8.988;2023-12-20T09:23:27;3.08;;;0.63;;
73699;SDS011;62005;50.082;8.988;2023-12-20T09:25:52;4.50;;;0.87;;
73699;SDS011;62005;50.082;8.988;2023-12-20T09:28:18;2.22;;;0.55;;
73699;SDS011;62005;50.082;8.988;2023-12-20T09:30:43;3.37;;;0.50;;
73699;SDS011;62005;50.082;8.988;2023-12-20T09:33:10;8.40;;;1.00;;
73699;SDS011;62005;50.082;8.988;2023-12-20T09:35:36;3.40;;;0.43;;
73699;SDS011;62005;50.082;8.988;2023-12-20T09:38:01;5.85;;;0.60;;
73699;SDS011;62005;50.082;8.988;2023-12-20T09:40:27;2.13;;;0.32;;
73699;SDS011;62005;50.082;8.988;2023-12-20T09:42:57;1.98;;;0.50;;
73699;SDS011;62005;50.082;8.988;2023-12-20T09:45:26;2.92;;;0.50;;
73699;SDS011;62005;50.082;8.988;2023-12-20T09:47:54;1.90;;;0.37;;
73699;SDS011;62005;50.082;8.988;2023-12-20T09:50:20;5.18;;;0.68;;
73699;SDS011;62005;50.082;8.988;2023-12-20T09:52:51;4.38;;;1.10;;
73699;SDS011;62005;50.082;8.988;2023-12-20T09:55:17;3.25;;;0.47;;
73699;SDS011;62005;50.082;8.988;2023-12-20T09:57:44;2.92;;;0.70;;
73699;SDS011;62005;50.082;8.988;2023-12-20T10:00:10;8.57;;;0.93;;
73699;SDS011;62005;50.082;8.988;2023-12-20T10:02:36;3.03;;;0.40;;
73699;SDS011;62005;50.082;8.988;2023-12-20T10:05:07;3.55;;;0.60;;
73699;SDS011;62005;50.082;8.988;2023-12-20T10:07:34;3.55;;;0.73;;
73699;SDS011;62005;50.082;8.988;2023-12-20T10:10:00;2.67;;;0.35;;
73699;SDS011;62005;50.082;8.988;2023-12-20T10:12:27;6.85;;;0.60;;
73699;SDS011;62005;50.082;8.988;2023-12-20T10:14:52;4.47;;;0.73;;
73699;SDS011;62005;50.082;8.988;2023-12-20T10:17:18;3.13;;;0.40;;
73699;SDS011;62005;50.082;8.988;2023-12-20T10:19:43;6.50;;;2.67;;
73699;SDS011;62005;50.082;8.988;2023-12-20T10:22:09;5.00;;;0.98;;
73699;SDS011;62005;50.082;8.988;2023-12-20T10:24:35;3.40;;;0.68;;
73699;SDS011;62005;50.082;8.988;2023-12-20T10:27:01;5.63;;;2.40;;
73699;SDS011;62005;50.082;8.988;2023-12-20T10:29:33;4.00;;;0.73;;
73699;SDS011;62005;50.082;8.988;2023-12-20T10:32:21;3.63;;;0.70;;
73699;SDS011;62005;50.082;8.988;2023-12-20T10:34:51;3.50;;;0.75;;
73699;SDS011;62005;50.082;8.988;2023-12-20T10:37:17;7.72;;;0.75;;
73699;SDS011;62005;50.082;8.988;2023-12-20T10:39:42;4.97;;;0.80;;
73699;SDS011;62005;50.082;8.988;2023-12-20T10:42:11;2.25;;;0.57;;
73699;SDS011;62005;50.082;8.988;2023-12-20T10:44:37;3.53;;;0.80;;
73699;SDS011;62005;50.082;8.988;2023-12-20T10:47:03;6.45;;;0.60;;
73699;SDS011;62005;50.082;8.988;2023-12-20T10:49:29;6.72;;;0.75;;
73699;SDS011;62005;50.082;8.988;2023-12-20T10:51:57;4.55;;;0.80;;
73699;SDS011;62005;50.082;8.988;2023-12-20T10:54:27;6.15;;;0.73;;
73699;SDS011;62005;50.082;8.988;2023-12-20T10:56:53;3.10;;;0.90;;
73699;SDS011;62005;50.082;8.988;2023-12-20T10:59:20;8.18;;;1.60;;
73699;SDS011;62005;50.082;8.988;2023-12-20T11:01:48;8.10;;;0.60;;
73699;SDS011;62005;50.082;8.988;2023-12-20T11:04:15;5.45;;;1.20;;
73699;SDS011;62005;50.082;8.988;2023-12-20T11:06:49;6.75;;;1.67;;
73699;SDS011;62005;50.082;8.988;2023-12-20T11:09:35;3.88;;;0.70;;
73699;SDS011;62005;50.082;8.988;2023-12-20T11:12:19;4.00;;;1.20;;
73699;SDS011;62005;50.082;8.988;2023-12-20T11:15:06;5.68;;;0.73;;
73699;SDS011;62005;50.082;8.988;2023-12-20T11:17:33;3.40;;;0.47;;
73699;SDS011;62005;50.082;8.988;2023-12-20T11:22:26;5.75;;;0.75;;
73699;SDS011;62005;50.082;8.988;2023-12-20T11:24:56;4.85;;;0.50;;
73699;SDS011;62005;50.082;8.988;2023-12-20T11:27:24;3.90;;;0.77;;
73699;SDS011;62005;50.082;8.988;2023-12-20T11:29:56;4.33;;;0.53;;
73699;SDS011;62005;50.082;8.988;2023-12-20T11:34:55;4.28;;;0.52;;
73699;SDS011;62005;50.082;8.988;2023-12-20T11:37:31;4.03;;;0.70;;
73699;SDS011;62005;50.082;8.988;2023-12-20T11:42:32;3.92;;;1.48;;
73699;SDS011;62005;50.082;8.988;2023-12-20T11:44:59;4.07;;;0.65;;
73699;SDS011;62005;50.082;8.988;2023-12-20T11:47:28;2.88;;;0.70;;
73699;SDS011;62005;50.082;8.988;2023-12-20T11:49:54;4.90;;;1.05;;
73699;SDS011;62005;50.082;8.988;2023-12-20T11:52:21;2.75;;;0.45;;
73699;SDS011;62005;50.082;8.988;2023-12-20T11:54:46;5.47;;;1.15;;
73699;SDS011;62005;50.082;8.988;2023-12-20T11:57:12;5.10;;;0.50;;
73699;SDS011;62005;50.082;8.988;2023-12-20T11:59:38;8.63;;;0.40;;
73699;SDS011;62005;50.082;8.988;2023-12-20T12:02:03;5.13;;;0.57;;
73699;SDS011;62005;50.082;8.988;2023-12-20T12:04:29;2.75;;;0.40;;
73699;SDS011;62005;50.082;8.988;2023-12-20T12:06:54;4.13;;;0.45;;
73699;SDS011;62005;50.082;8.988;2023-12-20T12:09:20;5.68;;;0.60;;
73699;SDS011;62005;50.082;8.988;2023-12-20T12:11:45;2.55;;;0.20;;
73699;SDS011;62005;50.082;8.988;2023-12-20T12:14:11;3.92;;;0.30;;
73699;SDS011;62005;50.082;8.988;2023-12-20T12:16:36;5.10;;;0.70;;
73699;SDS011;62005;50.082;8.988;2023-12-20T12:19:02;4.63;;;0.52;;
73699;SDS011;62005;50.082;8.988;2023-12-20T12:21:27;3.35;;;0.50;;
73699;SDS011;62005;50.082;8.988;2023-12-20T12:23:53;3.75;;;0.45;;
73699;SDS011;62005;50.082;8.988;2023-12-20T12:26:18;4.53;;;0.63;;
73699;SDS011;62005;50.082;8.988;2023-12-20T12:28:44;2.80;;;0.40;;
73699;SDS011;62005;50.082;8.988;2023-12-20T12:31:13;4.13;;;0.63;;
73699;SDS011;62005;50.082;8.988;2023-12-20T12:33:42;4.72;;;0.40;;
73699;SDS011;62005;50.082;8.988;2023-12-20T12:36:09;3.70;;;0.40;;
73699;SDS011;62005;50.082;8.988;2023-12-20T12:38:36;7.30;;;0.60;;
73699;SDS011;62005;50.082;8.988;2023-12-20T12:41:01;4.33;;;0.70;;
73699;SDS011;62005;50.082;8.988;2023-12-20T12:43:27;4.60;;;0.70;;
73699;SDS011;62005;50.082;8.988;2023-12-20T12:45:53;3.67;;;0.57;;
73699;SDS011;62005;50.082;8.988;2023-12-20T12:48:19;5.93;;;0.95;;
73699;SDS011;62005;50.082;8.988;2023-12-20T12:50:45;5.82;;;0.77;;
73699;SDS011;62005;50.082;8.988;2023-12-20T12:53:11;3.10;;;0.90;;
73699;SDS011;62005;50.082;8.988;2023-12-20T12:55:36;5.40;;;0.80;;
73699;SDS011;62005;50.082;8.988;2023-12-20T12:58:02;3.40;;;0.40;;
73699;SDS011;62005;50.082;8.988;2023-12-20T13:00:27;2.85;;;0.38;;
73699;SDS011;62005;50.082;8.988;2023-12-20T13:02:53;2.25;;;0.82;;
73699;SDS011;62005;50.082;8.988;2023-12-20T13:05:18;4.80;;;0.55;;
73699;SDS011;62005;50.082;8.988;2023-12-20T13:07:43;7.80;;;0.80;;
73699;SDS011;62005;50.082;8.988;2023-12-20T13:10:10;5.85;;;0.70;;
73699;SDS011;62005;50.082;8.988;2023-12-20T13:12:36;4.13;;;0.70;;
73699;SDS011;62005;50.082;8.988;2023-12-20T13:15:02;4.45;;;1.10;;
73699;SDS011;62005;50.082;8.988;2023-12-20T13:17:29;3.55;;;0.60;;
73699;SDS011;62005;50.082;8.988;2023-12-20T13:19:54;3.95;;;0.47;;
73699;SDS011;62005;50.082;8.988;2023-12-20T13:22:20;2.90;;;0.80;;
73699;SDS011;62005;50.082;8.988;2023-12-20T13:24:45;2.92;;;0.70;;
73699;SDS011;62005;50.082;8.988;2023-12-20T13:27:11;3.30;;;0.43;;
73699;SDS011;62005;50.082;8.988;2023-12-20T13:29:36;1.67;;;0.47;;
73699;SDS011;62005;50.082;8.988;2023-12-20T13:32:01;2.23;;;0.40;;
73699;SDS011;62005;50.082;8.988;2023-12-20T13:34:28;6.55;;;0.98;;
73699;SDS011;62005;50.082;8.988;2023-12-20T13:36:54;4.43;;;1.02;;
73699;SDS011;62005;50.082;8.988;2023-12-20T13:39:19;4.40;;;0.95;;
73699;SDS011;62005;50.082;8.988;2023-12-20T13:41:46;4.95;;;0.88;;
73699;SDS011;62005;50.082;8.988;2023-12-20T13:44:12;4.78;;;0.93;;
73699;SDS011;62005;50.082;8.988;2023-12-20T13:46:38;3.30;;;0.40;;
73699;SDS011;62005;50.082;8.988;2023-12-20T13:49:03;4.55;;;0.50;;
73699;SDS011;62005;50.082;8.988;2023-12-20T13:51:30;5.30;;;0.68;;
73699;SDS011;62005;50.082;8.988;2023-12-20T13:53:55;6.47;;;0.73;;
73699;SDS011;62005;50.082;8.988;2023-12-20T13:56:21;3.35;;;0.68;;
73699;SDS011;62005;50.082;8.988;2023-12-20T13:58:48;4.38;;;0.80;;
73699;SDS011;62005;50.082;8.988;2023-12-20T14:01:13;2.15;;;0.60;;
73699;SDS011;62005;50.082;8.988;2023-12-20T14:03:39;3.10;;;0.52;;
73699;SDS011;62005;50.082;8.988;2023-12-20T14:06:06;7.20;;;1.35;;
73699;SDS011;62005;50.082;8.988;2023-12-20T14:08:31;6.03;;;0.93;;
73699;SDS011;62005;50.082;8.988;2023-12-20T14:10:57;7.70;;;1.10;;
73699;SDS011;62005;50.082;8.988;2023-12-20T14:13:22;2.40;;;0.60;;
73699;SDS011;62005;50.082;8.988;2023-12-20T14:15:47;4.22;;;0.60;;
73699;SDS011;62005;50.082;8.988;2023-12-20T14:18:14;4.82;;;0.70;;
73699;SDS011;62005;50.082;8.988;2023-12-20T14:20:40;4.13;;;0.80;;
73699;SDS011;62005;50.082;8.988;2023-12-20T14:23:08;5.30;;;0.68;;
73699;SDS011;62005;50.082;8.988;2023-12-20T14:25:37;7.20;;;1.30;;
73699;SDS011;62005;50.082;8.988;2023-12-20T14:28:03;4.47;;;0.65;;
73699;SDS011;62005;50.082;8.988;2023-12-20T14:30:29;3.20;;;0.77;;
73699;SDS011;62005;50.082;8.988;2023-12-20T14:32:54;3.83;;;1.08;;
73699;SDS011;62005;50.082;8.988;2023-12-20T14:35:20;6.68;;;2.58;;
73699;SDS011;62005;50.082;8.988;2023-12-20T14:37:45;5.23;;;0.50;;
73699;SDS011;62005;50.082;8.988;2023-12-20T14:40:11;8.02;;;1.80;;
73699;SDS011;62005;50.082;8.988;2023-12-20T14:42:40;7.57;;;1.55;;
73699;SDS011;62005;50.082;8.988;2023-12-20T14:45:06;7.57;;;1.33;;
73699;SDS011;62005;50.082;8.988;2023-12-20T14:47:32;4.03;;;0.70;;
73699;SDS011;62005;50.082;8.988;2023-12-20T14:49:58;4.45;;;1.35;;
73699;SDS011;62005;50.082;8.988;2023-12-20T14:52:23;5.57;;;1.15;;